Time;durP1;ratioP1;P1;durP2;ratioP2;P2;SDS_P1;SDS_P2;PMS_P1;PMS_P2;Temp;Humidity;BMP_temperature;BMP_pressure;BME280_temperature;BME280_humidity;BME280_pressure;Samples;Min_cycle;Max_cycle;Signal;HPM_P1;HPM_P2
2024/03/10 00:00:08;;;;;;;;;51.40;40.40;;;;;9.75;100.00;98256.97;5991313;28;99571;-57
2024/03/10 00:03:12;;;;;;;;;48.60;39.00;;;;;9.76;100.00;98247.84;6006333;28;97254;-58
2024/03/10 00:06:15;;;;;;;;;46.00;38.40;;;;;9.73;100.00;98248.31;6006251;28;97550;-57
2024/03/10 00:09:18;;;;;;;;;49.00;39.00;;;;;9.63;100.00;98250.75;5998172;28;97727;-57
2024/03/10 00:12:22;;;;;;;;;49.40;39.00;;;;;9.31;100.00;98255.59;6014194;28;96335;-58
2024/03/10 00:15:25;;;;;;;;;51.00;40.60;;;;;9.19;100.00;98257.38;6029909;28;96453;-58
2024/03/10 00:18:29;;;;;;;;;47.25;38.25;;;;;9.10;100.00;98256.06;5989453;28;96817;-57
2024/03/10 00:21:33;;;;;;;;;52.80;40.00;;;;;9.07;100.00;98259.22;5974364;29;96264;-57
2024/03/10 00:24:37;;;;;;;;;47.80;38.00;;;;;9.13;100.00;98256.47;5975811;29;96526;-57
2024/03/10 00:27:40;;;;;;;;;49.00;40.00;;;;;9.18;100.00;98263.03;5959853;29;96405;-58
2024/03/10 00:30:48;;;;;;;;;47.40;39.00;;;;;9.23;100.00;98263.16;5974061;29;96694;-58
2024/03/10 00:33:52;;;;;;;;;50.40;39.00;;;;;9.23;100.00;98266.66;5974391;29;96478;-57
2024/03/10 00:36:55;;;;;;;;;49.00;39.00;;;;;9.15;100.00;98261.59;5957903;29;98400;-57
2024/03/10 00:39:58;;;;;;;;;49.00;40.00;;;;;9.24;100.00;98252.16;5958759;29;98933;-57
2024/03/10 00:43:01;;;;;;;;;49.00;39.60;;;;;9.25;100.00;98252.97;5975266;29;96576;-57
2024/03/10 00:46:05;;;;;;;;;53.40;42.00;;;;;9.18;100.00;98253.09;5982185;29;96340;-57
2024/03/10 00:49:10;;;;;;;;;49.40;40.80;;;;;9.25;100.00;98261.88;5975371;29;96182;-57
2024/03/10 00:52:13;;;;;;;;;51.50;41.00;;;;;9.33;100.00;98260.75;5975613;29;96349;-57
2024/03/10 00:55:16;;;;;;;;;48.00;38.00;;;;;9.41;100.00;98260.41;5974811;29;96589;-57
2024/03/10 00:58:20;;;;;;;;;50.00;39.40;;;;;9.44;100.00;98255.38;5975363;29;96417;-57
2024/03/10 01:01:23;;;;;;;;;49.40;39.20;;;;;9.48;100.00;98256.56;5973408;29;96323;-57
2024/03/10 01:04:29;;;;;;;;;51.00;40.50;;;;;9.51;100.00;98261.50;5998310;29;96424;-57
2024/03/10 01:07:32;;;;;;;;;51.40;40.60;;;;;9.54;100.00;98254.81;5998341;29;96954;-57
2024/03/10 01:10:35;;;;;;;;;48.60;39.00;;;;;9.42;100.00;98230.59;5992791;29;96462;-57
2024/03/10 01:13:39;;;;;;;;;47.00;38.00;;;;;9.53;100.00;98254.00;5975459;29;96788;-58
2024/03/10 01:16:42;;;;;;;;;46.50;36.75;;;;;9.54;100.00;98255.66;5998019;29;96360;-57
2024/03/10 01:19:46;;;;;;;;;47.60;38.00;;;;;9.51;100.00;98248.03;5998301;29;96397;-57
2024/03/10 01:22:49;;;;;;;;;44.60;36.20;;;;;9.49;100.00;98236.69;5952034;29;96347;-58
2024/03/10 01:25:53;;;;;;;;;48.60;38.40;;;;;9.38;100.00;98226.69;5960711;29;96386;-57
2024/03/10 01:28:56;;;;;;;;;46.80;38.00;;;;;9.36;100.00;98218.06;5983567;29;97055;-54
2024/03/10 01:31:59;;;;;;;;;44.80;36.00;;;;;9.34;100.00;98230.06;5988839;29;96303;-54
2024/03/10 01:35:05;;;;;;;;;49.00;36.00;;;;;9.34;100.00;98238.97;5974358;29;96495;-57
2024/03/10 01:38:09;;;;;;;;;47.00;36.00;;;;;9.35;100.00;98239.78;5984278;29;96492;-55
2024/03/10 01:41:13;;;;;;;;;42.20;35.00;;;;;9.32;100.00;98229.50;5951646;29;96748;-54
2024/03/10 01:44:16;;;;;;;;;45.50;36.00;;;;;9.32;100.00;98230.31;5968224;29;96624;-54
2024/03/10 01:47:19;;;;;;;;;50.00;39.00;;;;;9.25;100.00;98228.78;5983998;29;96322;-54
2024/03/10 01:50:23;;;;;;;;;47.00;37.50;;;;;9.18;100.00;98223.50;5983580;29;97358;-54
2024/03/10 01:53:28;;;;;;;;;47.00;37.20;;;;;8.96;100.00;98217.81;5988293;29;96464;-53
2024/03/10 01:56:31;;;;;;;;;48.80;39.20;;;;;8.86;100.00;98214.84;5989957;29;97630;-54
2024/03/10 01:59:38;;;;;;;;;46.40;38.00;;;;;8.81;100.00;98211.19;6006809;29;96615;-54
2024/03/10 02:02:50;;;;;;;;;50.40;40.00;;;;;8.78;100.00;98217.00;5970087;29;96380;-54
2024/03/10 02:05:55;;;;;;;;;50.00;39.00;;;;;8.68;100.00;98212.19;5980345;29;96412;-55
2024/03/10 02:08:58;;;;;;;;;50.60;39.80;;;;;8.68;100.00;98210.31;5975018;29;96296;-55
2024/03/10 02:12:01;;;;;;;;;52.00;40.00;;;;;8.53;100.00;98206.38;5983814;29;96370;-55
2024/03/10 02:15:06;;;;;;;;;48.00;38.00;;;;;8.47;100.00;98208.09;5983349;29;96385;-55
2024/03/10 02:18:10;;;;;;;;;49.00;39.00;;;;;8.40;100.00;98207.34;5966425;29;98969;-55
2024/03/10 02:21:18;;;;;;;;;50.00;39.00;;;;;8.39;100.00;98204.88;5963267;29;96489;-55
2024/03/10 02:24:32;;;;;;;;;48.40;38.00;;;;;8.27;100.00;98200.22;5960763;29;96582;-55
2024/03/10 02:27:44;;;;;;;;;47.00;37.00;;;;;8.29;100.00;98202.69;5959630;29;97058;-55
2024/03/10 02:30:55;;;;;;;;;49.00;39.00;;;;;8.24;100.00;98199.84;5959727;29;96619;-55
2024/03/10 02:47:23;;;;;;;;;47.00;37.00;;;;;8.10;100.00;98179.56;5927862;29;98720;-55
2024/03/10 02:50:26;;;;;;;;;47.20;37.00;;;;;7.83;100.00;98171.78;5942231;29;98443;-55
2024/03/10 02:53:30;;;;;;;;;46.00;35.60;;;;;8.04;100.00;98188.50;5959887;29;96305;-55
2024/03/10 02:56:33;;;;;;;;;45.00;37.50;;;;;8.11;100.00;98191.94;5960273;29;96502;-54
2024/03/10 02:59:38;;;;;;;;;49.40;39.00;;;;;8.00;100.00;98190.00;5943145;29;96265;-55
2024/03/10 03:02:41;;;;;;;;;48.60;38.00;;;;;8.05;100.00;98196.34;5943148;29;97103;-55
2024/03/10 03:05:44;;;;;;;;;46.50;36.00;;;;;7.94;100.00;98178.28;5960626;29;96322;-55
2024/03/10 03:08:47;;;;;;;;;45.80;36.40;;;;;7.87;100.00;98179.41;5961078;29;96470;-55
2024/03/10 03:11:50;;;;;;;;;41.00;34.60;;;;;7.81;100.00;98189.97;5943627;29;96454;-55
2024/03/10 03:14:54;;;;;;;;;46.20;35.80;;;;;7.50;100.00;98123.00;5944083;29;96880;-55
2024/03/10 03:17:58;;;;;;;;;45.00;35.50;;;;;7.70;100.00;98179.13;5958510;29;96315;-52
2024/03/10 03:21:01;;;;;;;;;45.80;36.00;;;;;7.76;100.00;98179.09;5956023;29;96259;-52
2024/03/10 03:24:07;;;;;;;;;43.80;35.80;;;;;7.65;100.00;98155.66;5956181;29;96840;-52
2024/03/10 03:27:11;;;;;;;;;43.40;35.00;;;;;7.77;100.00;98172.66;5946031;29;97339;-55
2024/03/10 03:30:16;;;;;;;;;45.00;36.00;;;;;7.84;100.00;98170.75;5979056;29;96407;-55
2024/03/10 03:33:20;;;;;;;;;44.00;35.00;;;;;7.68;100.00;98131.06;5962654;29;96702;-55
2024/03/10 03:36:23;;;;;;;;;40.25;32.00;;;;;7.84;100.00;98168.06;5979668;29;96493;-55
2024/03/10 03:39:26;;;;;;;;;43.00;35.00;;;;;7.92;100.00;98164.25;5978644;29;96246;-56
2024/03/10 03:42:29;;;;;;;;;36.75;33.00;;;;;7.94;100.00;98172.09;5962333;29;98400;-56
2024/03/10 03:45:33;;;;;;;;;38.20;32.80;;;;;7.95;100.00;98157.63;5978921;29;96359;-55
2024/03/10 03:48:36;;;;;;;;;40.20;34.20;;;;;7.92;100.00;98148.16;5979202;29;96268;-55
2024/03/10 03:51:43;;;;;;;;;38.67;32.00;;;;;7.93;100.00;98143.59;5978933;29;96289;-55
2024/03/10 03:54:46;;;;;;;;;40.20;32.60;;;;;7.94;100.00;98145.25;5979040;29;96332;-55
2024/03/10 03:57:49;;;;;;;;;41.60;33.00;;;;;7.89;100.00;98139.72;5961195;29;96343;-55
2024/03/10 04:00:54;;;;;;;;;38.25;31.50;;;;;7.82;100.00;98163.94;5978343;29;96343;-55
2024/03/10 04:03:57;;;;;;;;;36.60;32.00;;;;;7.88;100.00;98138.91;5977504;29;96079;-55
2024/03/10 04:07:00;;;;;;;;;45.00;32.00;;;;;7.89;100.00;98137.88;5977098;29;96942;-55
2024/03/10 04:10:04;;;;;;;;;38.00;31.00;;;;;7.80;100.00;98140.03;5978616;29;96786;-55
2024/03/10 04:13:07;;;;;;;;;36.40;30.00;;;;;7.83;100.00;98152.16;5978448;29;96250;-55
2024/03/10 04:16:11;;;;;;;;;35.20;32.20;;;;;7.89;100.00;98147.78;5962238;29;97291;-56
2024/03/10 04:19:14;;;;;;;;;38.60;32.00;;;;;7.81;100.00;98125.56;5977826;29;96256;-55
2024/03/10 04:22:18;;;;;;;;;37.40;31.00;;;;;7.92;100.00;98141.94;5978228;29;96281;-55
2024/03/10 04:25:21;;;;;;;;;41.00;33.00;;;;;7.91;100.00;98137.66;5976618;29;96372;-55
2024/03/10 04:28:25;;;;;;;;;34.00;30.00;;;;;7.92;100.00;98136.59;5977632;29;96977;-55
2024/03/10 04:31:29;;;;;;;;;34.00;30.00;;;;;7.72;100.00;98131.47;5976844;29;96371;-55
2024/03/10 04:34:32;;;;;;;;;36.60;30.60;;;;;7.63;100.00;98125.53;5962398;29;96221;-55
2024/03/10 04:37:35;;;;;;;;;41.40;31.60;;;;;7.66;100.00;98116.25;5977118;29;96296;-55
2024/03/10 04:40:39;;;;;;;;;37.00;30.60;;;;;7.74;100.00;98106.03;5979004;29;96488;-55
2024/03/10 04:43:41;;;;;;;;;41.20;32.20;;;;;7.75;100.00;98115.72;5978511;29;97033;-55
2024/03/10 04:46:46;;;;;;;;;37.20;31.00;;;;;7.82;100.00;98121.81;5978509;29;96450;-55
2024/03/10 04:49:49;;;;;;;;;36.40;31.80;;;;;7.72;100.00;98123.41;5977414;29;96468;-55
2024/03/10 04:52:52;;;;;;;;;38.25;33.00;;;;;7.88;100.00;98132.72;5977084;29;96329;-55
2024/03/10 04:55:55;;;;;;;;;34.80;31.40;;;;;7.92;100.00;98133.91;5977285;29;96982;-55
2024/03/10 04:58:59;;;;;;;;;39.80;32.00;;;;;7.93;100.00;98132.88;5961440;29;96716;-56
2024/03/10 05:02:05;;;;;;;;;33.50;30.00;;;;;7.92;100.00;98132.03;5976272;29;96567;-55
2024/03/10 05:05:08;;;;;;;;;40.50;33.00;;;;;7.88;100.00;98106.69;5975848;29;96467;-55
2024/03/10 05:08:12;;;;;;;;;38.75;32.50;;;;;7.86;100.00;98086.50;5977421;29;96097;-55
2024/03/10 05:11:15;;;;;;;;;37.80;32.00;;;;;8.11;100.00;98122.94;5975055;29;97422;-56
2024/03/10 05:14:19;;;;;;;;;39.40;32.40;;;;;8.10;100.00;98123.19;5976029;29;96303;-56
2024/03/10 05:17:23;;;;;;;;;39.80;32.00;;;;;8.11;100.00;98125.63;5959402;29;96298;-55
2024/03/10 05:20:27;;;;;;;;;37.80;31.00;;;;;8.10;100.00;98136.63;5969479;29;98148;-55
2024/03/10 05:23:30;;;;;;;;;35.60;31.60;;;;;8.05;100.00;98145.34;5972538;29;96312;-55
2024/03/10 05:26:34;;;;;;;;;32.00;29.00;;;;;7.96;100.00;98154.75;5957361;29;96992;-55
2024/03/10 05:29:37;;;;;;;;;37.00;31.50;;;;;8.02;100.00;98150.31;5969576;29;96829;-55
2024/03/10 05:32:41;;;;;;;;;37.33;32.00;;;;;8.07;100.00;98153.16;5953541;29;97448;-55
2024/03/10 05:35:44;;;;;;;;;39.50;33.00;;;;;8.04;100.00;98149.06;5960904;29;96368;-55
2024/03/10 05:38:48;;;;;;;;;35.60;32.00;;;;;8.10;100.00;98161.59;5970220;29;96885;-55
2024/03/10 05:41:51;;;;;;;;;40.60;33.00;;;;;8.16;100.00;98146.47;5972119;29;96526;-55
2024/03/10 05:44:55;;;;;;;;;32.75;30.00;;;;;8.26;100.00;98142.19;5972755;29;96280;-55
2024/03/10 05:47:59;;;;;;;;;35.40;31.00;;;;;8.31;100.00;98135.38;5971493;29;96216;-55
2024/03/10 05:51:03;;;;;;;;;32.20;29.20;;;;;8.30;100.00;98131.03;5973171;29;96333;-55
2024/03/10 05:54:06;;;;;;;;;37.60;31.80;;;;;8.28;100.00;98131.22;5954889;29;96493;-55
2024/03/10 05:57:10;;;;;;;;;36.00;30.00;;;;;8.28;100.00;98113.25;5972955;29;96276;-55
2024/03/10 06:00:15;;;;;;;;;35.60;31.60;;;;;8.47;100.00;98124.81;5972918;29;96453;-55
2024/03/10 06:03:20;;;;;;;;;35.50;30.00;;;;;8.53;100.00;98123.09;5956518;29;96327;-56
2024/03/10 06:06:23;;;;;;;;;34.60;30.00;;;;;8.41;100.00;98128.41;5970820;29;97050;-55
2024/03/10 06:09:27;;;;;;;;;33.00;30.00;;;;;8.47;100.00;98122.13;5957204;29;96397;-55
2024/03/10 06:12:30;;;;;;;;;32.20;28.80;;;;;8.68;100.00;98134.25;5972607;29;96095;-55
2024/03/10 06:15:34;;;;;;;;;33.00;29.00;;;;;8.70;100.00;98142.88;5973079;29;96926;-55
2024/03/10 06:25:27;;;;;;;;;30.80;28.40;;;;;8.96;100.00;98134.47;5974818;29;96810;-55
2024/03/10 06:28:30;;;;;;;;;31.80;29.00;;;;;9.18;100.00;98131.25;5975270;29;96254;-55
2024/03/10 06:31:33;;;;;;;;;32.60;29.00;;;;;9.35;100.00;98140.28;5973448;29;96282;-55
2024/03/10 06:34:38;;;;;;;;;34.25;30.00;;;;;9.35;100.00;98140.28;5973365;29;96932;-55
2024/03/10 06:37:41;;;;;;;;;34.60;29.60;;;;;9.38;100.00;98135.22;5974721;29;96977;-55
2024/03/10 06:40:44;;;;;;;;;32.80;30.00;;;;;9.44;100.00;98126.25;5957487;29;96268;-55
2024/03/10 06:43:49;;;;;;;;;33.80;29.80;;;;;9.38;100.00;98102.16;5973671;29;96332;-55
2024/03/10 06:46:53;;;;;;;;;33.00;30.00;;;;;9.65;100.00;98122.16;5973935;29;97753;-55
2024/03/10 06:49:58;;;;;;;;;31.50;28.50;;;;;9.68;100.00;98121.69;5956016;29;96860;-55
2024/03/10 06:53:01;;;;;;;;;32.60;28.00;;;;;9.61;100.00;98091.41;5958198;29;96318;-55
2024/03/10 06:56:04;;;;;;;;;30.60;28.00;;;;;9.86;100.00;98120.75;5973043;29;96716;-55
2024/03/10 06:59:07;;;;;;;;;35.00;29.00;;;;;9.87;100.00;98122.41;5972214;29;96333;-55
2024/03/10 07:02:12;;;;;;;;;32.80;30.00;;;;;9.97;100.00;98120.72;5954104;29;96948;-55
2024/03/10 07:05:18;;;;;;;;;33.00;30.00;;;;;9.84;100.00;98128.22;5970348;29;97266;-55
2024/03/10 07:08:21;;;;;;;;;34.00;30.00;;;;;9.97;100.00;98122.59;5981000;29;96253;-55
2024/03/10 07:11:24;;;;;;;;;35.00;30.20;;;;;10.14;100.00;98122.69;5976996;29;97013;-55
2024/03/10 07:14:28;;;;;;;;;33.75;30.00;;;;;10.24;100.00;98118.38;5983332;29;96429;-56
2024/03/10 07:17:31;;;;;;;;;36.75;31.50;;;;;10.31;100.00;98112.88;5982790;29;96961;-56
2024/03/10 07:20:35;;;;;;;;;35.00;31.00;;;;;10.64;100.00;98122.94;5971718;29;96427;-55
2024/03/10 07:23:40;;;;;;;;;34.00;29.60;;;;;10.80;100.00;98105.97;5968883;29;97834;-56
2024/03/10 07:26:43;;;;;;;;;33.40;28.40;;;;;11.01;100.00;98116.06;5968799;29;96962;-55
2024/03/10 07:29:46;;;;;;;;;31.00;28.00;;;;;11.11;100.00;98113.53;5952117;29;97462;-56
2024/03/10 07:32:49;;;;;;;;;32.60;30.00;;;;;11.21;100.00;98111.03;5953553;29;98711;-55
2024/03/10 07:35:55;;;;;;;;;33.50;30.00;;;;;11.49;100.00;98107.41;5969139;29;96397;-56
2024/03/10 07:38:59;;;;;;;;;31.00;28.00;;;;;11.70;100.00;98111.25;5969501;29;96844;-56
2024/03/10 07:42:03;;;;;;;;;34.00;30.00;;;;;11.73;100.00;98099.97;5966971;29;96804;-55
2024/03/10 07:45:07;;;;;;;;;33.50;29.50;;;;;11.82;100.00;98076.91;5967487;29;96860;-56
2024/03/10 07:48:10;;;;;;;;;34.50;27.75;;;;;12.38;100.00;98086.53;5968241;29;96904;-55
2024/03/10 07:51:15;;;;;;;;;32.00;29.00;;;;;12.83;100.00;98098.91;5968617;29;96621;-56
2024/03/10 07:54:18;;;;;;;;;33.00;29.20;;;;;13.15;100.00;98098.97;5936269;29;96917;-55
2024/03/10 07:57:22;;;;;;;;;35.00;30.00;;;;;13.49;100.00;98113.06;5965687;29;96151;-55
2024/03/10 08:00:26;;;;;;;;;33.00;29.00;;;;;14.07;100.00;98098.56;5962733;29;97031;-55
2024/03/10 08:03:29;;;;;;;;;30.00;27.00;;;;;15.41;100.00;98098.38;5967169;29;97748;-56
2024/03/10 08:06:34;;;;;;;;;31.00;26.00;;;;;16.58;100.00;98100.84;5970437;29;96589;-55
2024/03/10 08:09:37;;;;;;;;;29.80;26.80;;;;;17.85;100.00;98098.88;5967671;29;96298;-56
2024/03/10 08:12:40;;;;;;;;;31.80;29.40;;;;;20.08;100.00;98091.09;5951375;29;97317;-56
2024/03/10 08:15:43;;;;;;;;;28.00;26.00;;;;;22.66;90.89;98082.19;5967787;29;96290;-56
2024/03/10 08:18:47;;;;;;;;;31.00;29.00;;;;;25.40;69.79;98079.00;5959957;29;96717;-56
2024/03/10 08:21:54;;;;;;;;;28.25;26.00;;;;;29.30;61.88;98085.88;5958863;29;96586;-56
2024/03/10 08:24:57;;;;;;;;;26.60;24.60;;;;;33.19;52.16;98084.22;5956945;29;97148;-57
2024/03/10 08:28:00;;;;;;;;;26.00;23.60;;;;;36.46;42.18;98076.03;5960993;29;96553;-58
2024/03/10 08:31:04;;;;;;;;;27.60;25.60;;;;;38.62;35.13;98060.63;5959047;29;96304;-59
2024/03/10 08:34:08;;;;;;;;;28.00;26.00;;;;;40.61;32.06;98069.47;5963031;29;97062;-59
2024/03/10 08:37:13;;;;;;;;;28.00;23.00;;;;;41.66;27.45;98047.22;5960336;29;96267;-59
2024/03/10 08:40:18;;;;;;;;;24.00;23.00;;;;;42.69;27.33;98048.44;5958861;29;96929;-59
2024/03/10 08:43:23;;;;;;;;;23.00;22.00;;;;;43.53;26.49;98046.69;5957743;29;96394;-59
2024/03/10 08:46:26;;;;;;;;;26.60;23.60;;;;;43.66;24.99;98037.28;5951229;29;96349;-58
2024/03/10 08:49:29;;;;;;;;;25.00;24.00;;;;;44.47;26.55;98040.53;5952316;29;97288;-59
2024/03/10 08:52:34;;;;;;;;;23.20;21.20;;;;;45.40;25.05;98034.53;5957868;29;96925;-59
2024/03/10 08:55:37;;;;;;;;;22.00;22.00;;;;;45.95;24.51;98031.56;5953175;29;96606;-60
2024/03/10 08:58:41;;;;;;;;;23.00;22.00;;;;;45.44;22.40;98037.22;5960619;29;96283;-59
2024/03/10 09:01:44;;;;;;;;;21.00;20.50;;;;;45.71;23.52;98035.09;5957459;29;96294;-59
2024/03/10 09:04:48;;;;;;;;;21.00;21.00;;;;;46.10;21.38;98036.09;5962295;29;96605;-59
2024/03/10 09:07:53;;;;;;;;;19.60;19.00;;;;;45.20;22.95;98003.69;5961233;29;98134;-60
2024/03/10 09:10:59;;;;;;;;;21.80;19.20;;;;;44.86;23.04;98007.63;5958081;29;96279;-60
2024/03/10 09:14:07;;;;;;;;;21.25;20.25;;;;;45.74;23.82;98016.25;5957353;29;96990;-60
2024/03/10 09:17:11;;;;;;;;;22.00;19.00;;;;;46.75;23.47;98010.91;5942874;29;96514;-59
2024/03/10 09:20:20;;;;;;;;;21.00;20.00;;;;;46.45;21.91;98019.31;5958347;29;96519;-59
2024/03/10 09:23:25;;;;;;;;;22.00;21.00;;;;;47.27;22.50;98007.34;5959808;29;96379;-58
2024/03/10 09:26:29;;;;;;;;;19.40;18.60;;;;;47.47;21.83;97998.09;5950226;29;96418;-60
2024/03/10 09:29:33;;;;;;;;;21.00;18.00;;;;;47.90;22.96;97995.75;5941602;29;96390;-59
2024/03/10 09:32:36;;;;;;;;;20.00;18.00;;;;;48.03;23.02;97990.53;5955593;29;97159;-60
2024/03/10 09:35:41;;;;;;;;;21.00;19.00;;;;;48.76;22.48;97996.03;5936901;29;97110;-60
2024/03/10 09:38:46;;;;;;;;;20.40;20.00;;;;;48.11;21.52;97997.41;5953501;29;97621;-60
2024/03/10 09:41:51;;;;;;;;;22.00;21.00;;;;;47.42;20.77;98004.50;5953991;29;96626;-58
2024/03/10 09:44:55;;;;;;;;;21.75;21.00;;;;;44.29;23.14;97995.00;5935840;29;96593;-59
2024/03/10 09:48:01;;;;;;;;;21.00;20.40;;;;;40.61;25.77;97979.06;5959783;29;96196;-59
2024/03/10 09:51:05;;;;;;;;;23.20;21.00;;;;;37.20;29.73;97966.97;5938215;29;96952;-59
2024/03/10 09:54:10;;;;;;;;;21.67;20.00;;;;;34.03;33.53;97987.88;5966914;29;96394;-59
2024/03/10 09:57:13;;;;;;;;;19.40;17.00;;;;;31.80;37.70;97988.22;5963795;29;96228;-58
2024/03/10 10:00:18;;;;;;;;;21.00;19.00;;;;;30.09;42.69;97986.25;5962341;29;96274;-58
2024/03/10 10:03:21;;;;;;;;;18.80;17.80;;;;;28.63;48.18;97968.63;5959936;29;96938;-58
2024/03/10 10:06:27;;;;;;;;;20.60;19.60;;;;;27.50;51.74;97982.41;5960803;29;96324;-57
2024/03/10 10:09:31;;;;;;;;;21.00;19.00;;;;;26.97;55.30;97981.69;5959300;29;96740;-58
2024/03/10 10:12:34;;;;;;;;;22.25;21.50;;;;;27.02;56.58;97986.19;5958837;29;97501;-57
2024/03/10 10:15:37;;;;;;;;;20.00;19.00;;;;;26.70;57.72;97976.88;5960032;29;96294;-57
2024/03/10 10:18:40;;;;;;;;;22.60;20.60;;;;;26.27;60.08;97947.94;5956151;29;96797;-57
2024/03/10 10:21:58;;;;;;;;;21.75;20.00;;;;;25.85;63.01;97966.66;5960740;29;96427;-59
2024/03/10 10:25:04;;;;;;;;;21.60;20.60;;;;;25.52;64.27;97970.59;5961294;29;96339;-57
2024/03/10 10:28:14;;;;;;;;;23.00;19.50;;;;;25.00;67.09;97969.19;5948528;29;96440;-58
2024/03/10 10:31:18;;;;;;;;;20.75;19.75;;;;;24.51;69.23;97936.94;5964582;29;96269;-58
2024/03/10 10:34:22;;;;;;;;;20.60;19.00;;;;;24.35;72.33;97953.25;5963032;29;96420;-57
2024/03/10 10:37:26;;;;;;;;;22.00;20.40;;;;;24.32;75.30;97931.91;5961556;29;96436;-58
2024/03/10 10:40:30;;;;;;;;;24.00;21.00;;;;;23.85;77.11;97925.66;5962247;29;97376;-58
2024/03/10 10:43:37;;;;;;;;;23.60;20.80;;;;;24.08;78.29;97934.47;5961996;29;96198;-57
2024/03/10 10:46:40;;;;;;;;;23.40;20.40;;;;;23.99;76.66;97933.69;5961820;29;96404;-57
2024/03/10 10:49:44;;;;;;;;;22.25;19.25;;;;;23.84;79.85;97940.56;5964904;29;96507;-58
2024/03/10 10:52:48;;;;;;;;;20.25;18.00;;;;;23.75;79.16;97943.34;5963930;29;96330;-57
2024/03/10 10:55:52;;;;;;;;;19.60;18.00;;;;;23.44;79.92;97933.72;5966267;29;96209;-57
2024/03/10 10:58:56;;;;;;;;;18.40;17.40;;;;;23.20;83.74;97921.34;5965219;29;96951;-57
2024/03/10 11:02:14;;;;;;;;;18.40;16.60;;;;;23.32;82.85;97937.16;5964527;29;96418;-57
2024/03/10 11:05:18;;;;;;;;;19.40;16.00;;;;;23.04;82.04;97944.97;5963709;29;96202;-57
2024/03/10 11:08:21;;;;;;;;;18.40;17.40;;;;;22.53;85.79;97943.00;5963916;29;96562;-56
2024/03/10 11:11:47;;;;;;;;;20.40;19.40;;;;;22.18;86.96;97941.38;5964211;29;96286;-56
2024/03/10 11:14:53;;;;;;;;;18.75;16.75;;;;;21.15;93.64;97937.06;5949867;29;96351;-57
2024/03/10 11:17:56;;;;;;;;;16.00;15.00;;;;;21.11;96.32;97937.97;5968269;29;96602;-56
2024/03/10 11:21:00;;;;;;;;;18.60;17.60;;;;;21.27;100.00;97933.72;5965985;29;96633;-57
2024/03/10 11:24:08;;;;;;;;;19.40;19.40;;;;;21.37;94.68;97930.72;5963295;29;96273;-57
2024/03/10 11:27:17;;;;;;;;;20.00;17.00;;;;;21.31;98.45;97931.97;5963077;29;96279;-56
2024/03/10 11:30:49;;;;;;;;;17.00;15.40;;;;;20.99;97.93;97933.03;5964764;29;96741;-57
2024/03/10 11:33:54;;;;;;;;;18.00;15.00;;;;;20.88;99.74;97933.59;5964413;29;96213;-56
2024/03/10 11:36:58;;;;;;;;;17.00;16.00;;;;;20.79;100.00;97916.28;5965725;29;96325;-56
2024/03/10 11:40:03;;;;;;;;;19.75;17.25;;;;;20.72;100.00;97922.22;5965752;29;96991;-56
2024/03/10 11:43:08;;;;;;;;;17.75;16.00;;;;;20.73;100.00;97921.88;5965994;29;96889;-56
2024/03/10 11:46:17;;;;;;;;;17.00;17.00;;;;;20.84;100.00;97919.72;5950195;29;98056;-56
2024/03/10 11:49:21;;;;;;;;;17.00;15.00;;;;;20.69;100.00;97914.59;5939126;29;97386;-56
2024/03/10 11:52:25;;;;;;;;;13.60;13.60;;;;;20.82;100.00;97911.00;5970530;29;96539;-56
2024/03/10 11:55:28;;;;;;;;;15.40;14.60;;;;;20.94;100.00;97905.75;5970342;29;96806;-56
2024/03/10 11:58:33;;;;;;;;;15.40;14.40;;;;;21.05;100.00;97904.41;5970639;29;96241;-56
2024/03/10 12:01:36;;;;;;;;;16.00;14.50;;;;;21.14;100.00;97901.72;5967896;29;96317;-56
2024/03/10 12:04:39;;;;;;;;;16.00;15.00;;;;;21.34;100.00;97903.94;5969240;29;97215;-56
2024/03/10 12:07:43;;;;;;;;;14.75;14.75;;;;;21.71;100.00;97904.56;5954449;29;96786;-56
2024/03/10 12:10:46;;;;;;;;;14.00;13.00;;;;;22.20;96.55;97906.97;5969645;29;96856;-56
2024/03/10 12:13:51;;;;;;;;;13.50;12.00;;;;;22.62;93.22;97899.09;5965315;29;96336;-57
2024/03/10 12:16:55;;;;;;;;;15.50;12.50;;;;;23.10;93.84;97883.19;5969658;29;96265;-57
2024/03/10 12:20:00;;;;;;;;;12.60;12.60;;;;;23.48;91.16;97880.50;5970659;29;96423;-56
2024/03/10 12:23:05;;;;;;;;;12.20;11.00;;;;;23.54;88.60;97875.63;5970292;29;96340;-57
2024/03/10 12:26:10;;;;;;;;;8.00;7.00;;;;;22.81;87.72;97888.59;5951430;29;96734;-56
2024/03/10 12:29:20;;;;;;;;;11.60;10.00;;;;;22.43;90.60;97877.44;5969974;29;96342;-56
2024/03/10 12:32:24;;;;;;;;;7.00;7.00;;;;;21.89;95.22;97881.53;5968946;29;96242;-56
2024/03/10 12:35:28;;;;;;;;;8.80;7.80;;;;;21.75;97.11;97864.38;5954117;29;96407;-57
2024/03/10 12:38:31;;;;;;;;;9.60;7.00;;;;;21.57;98.34;97860.78;5965995;29;96277;-57
2024/03/10 12:41:34;;;;;;;;;8.00;8.00;;;;;21.10;100.00;97870.56;5964138;29;96311;-56
2024/03/10 12:44:39;;;;;;;;;8.00;8.00;;;;;20.90;100.00;97860.13;5966786;29;97556;-56
2024/03/10 12:47:43;;;;;;;;;8.00;7.00;;;;;20.97;100.00;97868.69;5964954;29;98179;-57
2024/03/10 12:50:46;;;;;;;;;11.00;11.00;;;;;20.38;100.00;97867.19;5964565;29;97012;-56
2024/03/10 12:53:49;;;;;;;;;6.00;6.00;;;;;20.11;100.00;97871.59;5968885;29;97417;-56
2024/03/10 12:56:54;;;;;;;;;8.40;8.00;;;;;19.37;100.00;97868.19;5970462;29;96336;-56
2024/03/10 12:59:59;;;;;;;;;8.75;8.00;;;;;19.22;100.00;97873.13;5970839;29;96313;-56
2024/03/10 13:03:05;;;;;;;;;8.40;7.00;;;;;18.78;100.00;97849.88;5968387;29;96795;-57
2024/03/10 13:06:08;;;;;;;;;7.20;7.00;;;;;18.85;100.00;97853.06;5966981;29;96340;-57
2024/03/10 13:09:11;;;;;;;;;7.00;7.00;;;;;18.65;100.00;97860.78;5964976;29;97029;-56
2024/03/10 13:12:14;;;;;;;;;8.00;8.00;;;;;18.54;100.00;97827.38;5967261;29;96863;-57
2024/03/10 13:15:19;;;;;;;;;8.00;8.00;;;;;18.68;100.00;97846.53;5949300;29;96964;-56
2024/03/10 13:18:23;;;;;;;;;8.00;7.40;;;;;18.31;100.00;97850.13;5961528;29;97787;-55
2024/03/10 13:21:26;;;;;;;;;7.80;7.80;;;;;17.93;100.00;97855.59;5968314;29;96459;-56
2024/03/10 13:24:31;;;;;;;;;7.00;7.00;;;;;17.80;100.00;97842.66;5966688;29;96450;-56
2024/03/10 13:27:35;;;;;;;;;7.00;7.00;;;;;17.12;100.00;97853.00;5971506;29;96628;-56
2024/03/10 13:30:40;;;;;;;;;7.00;7.00;;;;;17.51;100.00;97850.09;5954042;29;96277;-56
2024/03/10 13:33:43;;;;;;;;;6.40;6.40;;;;;17.35;100.00;97844.00;5952946;29;96925;-56
2024/03/10 13:36:46;;;;;;;;;6.60;6.60;;;;;17.10;100.00;97850.59;5970761;29;96379;-57
2024/03/10 13:39:49;;;;;;;;;8.60;8.60;;;;;17.07;100.00;97847.63;5953230;29;96459;-57
2024/03/10 13:42:53;;;;;;;;;7.00;6.00;;;;;17.00;100.00;97831.63;5951359;29;96438;-56
2024/03/10 13:45:57;;;;;;;;;8.00;7.00;;;;;16.88;100.00;97831.19;5970624;29;96298;-55
2024/03/10 13:49:00;;;;;;;;;8.80;7.80;;;;;16.96;100.00;97810.72;5973665;29;96981;-56
2024/03/10 13:52:13;;;;;;;;;8.40;8.40;;;;;17.23;100.00;97835.47;5972413;29;96408;-57
2024/03/10 13:55:20;;;;;;;;;10.00;9.00;;;;;17.08;100.00;97828.28;5969601;29;96728;-56
2024/03/10 13:58:24;;;;;;;;;7.50;7.25;;;;;16.81;100.00;97808.97;5971935;29;96268;-56
2024/03/10 14:01:30;;;;;;;;;9.00;8.00;;;;;16.78;100.00;97837.56;5967849;29;96498;-56
2024/03/10 14:04:33;;;;;;;;;10.00;9.00;;;;;16.78;100.00;97831.31;5968404;29;96384;-56
2024/03/10 14:07:37;;;;;;;;;9.00;8.75;;;;;16.59;100.00;97839.38;5969858;29;96428;-56
2024/03/10 14:10:40;;;;;;;;;9.40;9.00;;;;;16.73;100.00;97834.06;5968574;29;96587;-56
2024/03/10 14:13:44;;;;;;;;;8.60;8.60;;;;;16.88;100.00;97826.56;5971329;29;97370;-56
2024/03/10 14:16:50;;;;;;;;;9.00;8.00;;;;;16.42;100.00;97809.00;5969227;29;96957;-56
2024/03/10 14:19:54;;;;;;;;;7.40;7.00;;;;;16.37;100.00;97837.06;5968155;29;97043;-56
2024/03/10 14:22:57;;;;;;;;;7.00;6.00;;;;;16.43;100.00;97826.97;5970127;29;96405;-56
2024/03/10 14:26:00;;;;;;;;;7.50;7.00;;;;;16.52;100.00;97827.19;5971197;29;96384;-56